Airfield :
LOGIN :

Register | Disclaimer

   EN    FR    IT 

 










Legend :    VFR   Marginal VFR   IFR   Intensive IFR   Very Intensive IFR
Visi :
Ceiling :
>= 8 km
>= 3000ft
5 to 8 km
1000 to 3000 ft
1500m to 5 km
500 to 1000 ft
800 to 1500m
200 to 500 ft
< 800m
< 200 ft
Symbols :   Thunderstorms  Fog  Heavy snow  Heavy precipitations  Wind > 20 kt
SIGMETs :     Misc.  Thunderstorms  Icing  Turbulence  Mountain Waves  Volcanic Ashes






- Airport Elevation : 37 ft


EHVL - Vlieland Heliport

CURRENT METAR :
  • 171756Z AUTO 27004KT 9999 FEW013 OVC220 17/15 Q1015 BLU

EXPIRED METARs :
  • 171725Z AUTO 27006KT 9999 BKN009 OVC260 17/16 Q1015 GRN
  • 171707Z AUTO 29005KT 9999 FEW009 OVC270 18/16 Q1015 BLU
  • 171655Z AUTO 28005KT 9999 BKN010 OVC240 18/16 Q1015 GRN
  • 171625Z AUTO 28007KT 9000 BR FEW026 OVC360 18/16 Q1015 BLU
  • 171555Z AUTO 27007KT 9000 BR FEW023 SCT027 OVC330 19/16 Q1015 BLU
  • 171536Z AUTO 27006KT 9999 OVC024 19/16 Q1015 WHT

Expired Forecast.



MET'MAP, your aeronautical weather chart ! - Copyright ORBIFLY December 2007 - Disclaimer

ORBIFLY MET'MAP TEAM :

Programming & Development : Alexandra Zaïnal
Concept & original design : Baudouin d'Aumeries
Assistance for programming : Marc-Olivier Méhu
Technical & hardware support : Manuel Goepfert

Contact : metmap@orbifly.com




SOURCES & CREDITS :

   NOAA